Time;durP1;ratioP1;P1;durP2;ratioP2;P2;SDS_P1;SDS_P2;PMS_P1;PMS_P2;Temp;Humidity;BMP_temperature;BMP_pressure;BME280_temperature;BME280_humidity;BME280_pressure;Samples;Min_cycle;Max_cycle;Signal;HPM_P1;HPM_P2
2023/05/12 00:00:59;;;;;;;9.00;5.13;;;;;;;;;;5122328;27;20054;-52
2023/05/12 00:03:25;;;;;;;8.63;5.60;;;;;;;;;;5112306;27;20063;-53
2023/05/12 00:05:52;;;;;;;7.20;5.28;;;;;;;;;;5119492;27;20412;-55
2023/05/12 00:08:19;;;;;;;7.85;5.20;;;;;;;;;;5123225;27;20083;-54
2023/05/12 00:10:45;;;;;;;8.27;4.88;;;;;;;;;;5124078;27;20568;-55
2023/05/12 00:13:11;;;;;;;7.55;4.85;;;;;;;;;;5113366;27;20127;-52
2023/05/12 00:15:38;;;;;;;7.85;4.80;;;;;;;;;;5124092;27;20532;-53
2023/05/12 00:18:04;;;;;;;7.70;5.65;;;;;;;;;;5124132;27;20052;-55
2023/05/12 00:20:30;;;;;;;8.32;5.13;;;;;;;;;;5125118;27;20043;-55
2023/05/12 00:22:57;;;;;;;8.15;5.47;;;;;;;;;;5123994;27;20099;-55
2023/05/12 00:25:23;;;;;;;8.27;5.25;;;;;;;;;;5119934;27;20541;-56
2023/05/12 00:27:49;;;;;;;7.38;4.65;;;;;;;;;;5124266;27;20051;-55
2023/05/12 00:30:15;;;;;;;7.70;5.28;;;;;;;;;;5125454;27;20051;-53
2023/05/12 00:32:42;;;;;;;7.32;5.00;;;;;;;;;;5125855;27;20518;-55
2023/05/12 00:35:08;;;;;;;6.97;4.88;;;;;;;;;;5125594;27;20058;-56
2023/05/12 00:37:35;;;;;;;9.02;4.90;;;;;;;;;;5124024;27;20055;-51
2023/05/12 00:40:02;;;;;;;5.93;4.18;;;;;;;;;;5117752;27;20518;-55
2023/05/12 00:42:28;;;;;;;8.95;5.07;;;;;;;;;;5122480;27;20059;-51
2023/05/12 00:44:54;;;;;;;6.22;5.13;;;;;;;;;;5124058;27;20113;-56
2023/05/12 00:47:21;;;;;;;8.63;4.68;;;;;;;;;;5123462;27;20047;-54
2023/05/12 00:49:47;;;;;;;6.53;5.07;;;;;;;;;;5123752;27;20052;-51
2023/05/12 00:52:13;;;;;;;6.65;5.00;;;;;;;;;;5134803;27;20051;-56
2023/05/12 00:54:41;;;;;;;6.50;5.05;;;;;;;;;;5123963;27;20567;-54
2023/05/12 00:57:07;;;;;;;6.05;4.95;;;;;;;;;;5124209;27;20518;-53
2023/05/12 00:59:34;;;;;;;6.53;4.97;;;;;;;;;;5123281;27;20079;-54
2023/05/12 01:02:00;;;;;;;9.43;4.95;;;;;;;;;;5115073;27;20124;-53
2023/05/12 01:04:28;;;;;;;6.82;5.28;;;;;;;;;;5115152;27;20110;-52
2023/05/12 01:06:56;;;;;;;6.15;4.80;;;;;;;;;;5121586;27;20079;-54
2023/05/12 01:09:23;;;;;;;6.25;4.97;;;;;;;;;;5123054;27;20502;-53
2023/05/12 01:11:49;;;;;;;7.60;5.60;;;;;;;;;;5121871;27;20412;-55
2023/05/12 01:14:16;;;;;;;7.15;5.95;;;;;;;;;;5118882;27;20597;-53
2023/05/12 01:16:46;;;;;;;8.38;5.80;;;;;;;;;;5112695;27;20073;-53
2023/05/12 01:19:24;;;;;;;8.32;5.78;;;;;;;;;;5123155;27;20067;-51
2023/05/12 01:21:51;;;;;;;7.53;5.47;;;;;;;;;;5121747;27;20090;-54
2023/05/12 01:24:19;;;;;;;6.88;5.35;;;;;;;;;;5122664;27;20083;-53
2023/05/12 01:26:45;;;;;;;7.10;5.60;;;;;;;;;;5118405;27;20522;-51
2023/05/12 01:29:12;;;;;;;6.95;4.80;;;;;;;;;;5122312;27;20086;-51
2023/05/12 01:31:38;;;;;;;8.73;5.50;;;;;;;;;;5121883;27;20059;-53
2023/05/12 01:34:04;;;;;;;6.35;5.00;;;;;;;;;;5120857;27;20551;-55
2023/05/12 01:36:31;;;;;;;7.10;5.28;;;;;;;;;;5124895;27;20047;-54
2023/05/12 01:38:57;;;;;;;5.65;4.93;;;;;;;;;;5126126;27;20055;-53
2023/05/12 01:41:24;;;;;;;6.82;4.38;;;;;;;;;;5159663;27;20499;-53
2023/05/12 01:43:50;;;;;;;6.07;4.85;;;;;;;;;;5125270;27;20059;-53
2023/05/12 01:46:17;;;;;;;6.18;4.78;;;;;;;;;;5124346;27;20109;-51
2023/05/12 01:48:43;;;;;;;5.35;4.30;;;;;;;;;;5125992;27;20903;-55
2023/05/12 01:51:09;;;;;;;7.50;5.13;;;;;;;;;;5118222;27;20558;-53
2023/05/12 01:53:36;;;;;;;6.78;4.78;;;;;;;;;;5124971;27;20043;-55
2023/05/12 01:56:02;;;;;;;7.25;5.30;;;;;;;;;;5125494;27;20446;-51
2023/05/12 01:58:28;;;;;;;7.82;5.47;;;;;;;;;;5125750;27;20044;-55
2023/05/12 02:00:55;;;;;;;8.30;4.60;;;;;;;;;;5125726;27;20517;-56
2023/05/12 02:03:21;;;;;;;5.88;4.30;;;;;;;;;;5124019;27;20056;-53
2023/05/12 02:05:48;;;;;;;6.55;4.40;;;;;;;;;;5123245;27;20054;-53
2023/05/12 02:08:14;;;;;;;5.85;4.47;;;;;;;;;;5125777;27;20146;-50
2023/05/12 02:10:41;;;;;;;7.97;4.85;;;;;;;;;;5124184;27;20048;-53
2023/05/12 02:13:07;;;;;;;8.05;5.15;;;;;;;;;;5126381;27;20131;-52
2023/05/12 02:15:34;;;;;;;6.25;4.60;;;;;;;;;;5125666;27;20153;-53
2023/05/12 02:18:00;;;;;;;7.53;4.72;;;;;;;;;;5124411;27;20090;-55
2023/05/12 02:20:28;;;;;;;7.10;4.97;;;;;;;;;;5125419;27;20670;-54
2023/05/12 02:22:55;;;;;;;6.07;4.38;;;;;;;;;;5124513;27;20052;-55
2023/05/12 02:25:21;;;;;;;5.65;4.20;;;;;;;;;;5119748;27;20048;-54
2023/05/12 02:27:47;;;;;;;4.53;3.85;;;;;;;;;;5105578;27;20935;-50
2023/05/12 02:30:14;;;;;;;5.28;4.00;;;;;;;;;;5112710;27;20051;-53
2023/05/12 02:32:40;;;;;;;5.65;3.88;;;;;;;;;;5123983;27;20167;-50
2023/05/12 02:35:07;;;;;;;6.10;4.35;;;;;;;;;;5124954;27;20579;-53
2023/05/12 02:37:33;;;;;;;5.65;3.88;;;;;;;;;;5125823;27;20060;-52
2023/05/12 02:39:59;;;;;;;6.32;4.25;;;;;;;;;;5124927;27;20060;-50
2023/05/12 02:42:29;;;;;;;5.03;3.85;;;;;;;;;;5123427;27;20100;-51
2023/05/12 02:44:56;;;;;;;5.30;3.60;;;;;;;;;;5123912;27;20048;-53
2023/05/12 02:47:22;;;;;;;7.80;3.40;;;;;;;;;;5124674;27;20121;-50
2023/05/12 02:49:48;;;;;;;5.85;3.78;;;;;;;;;;5124915;27;20051;-53
2023/05/12 02:52:15;;;;;;;6.05;4.07;;;;;;;;;;5114699;27;20495;-50
2023/05/12 02:54:41;;;;;;;4.20;3.42;;;;;;;;;;5125151;27;20503;-51
2023/05/12 02:57:09;;;;;;;5.90;4.03;;;;;;;;;;5124749;27;20055;-50
2023/05/12 02:59:36;;;;;;;7.47;5.15;;;;;;;;;;5124559;27;20052;-52
2023/05/12 03:02:03;;;;;;;7.78;4.70;;;;;;;;;;5123881;27;20126;-51
2023/05/12 03:04:31;;;;;;;7.15;4.78;;;;;;;;;;5124094;27;20439;-55
2023/05/12 03:06:58;;;;;;;9.05;5.28;;;;;;;;;;5124134;27;20086;-51
2023/05/12 03:09:24;;;;;;;8.98;5.32;;;;;;;;;;5123111;27;20109;-51
2023/05/12 03:11:50;;;;;;;7.97;5.05;;;;;;;;;;5124737;27;20047;-55
2023/05/12 03:14:17;;;;;;;10.75;5.80;;;;;;;;;;5125008;27;20047;-53
2023/05/12 03:16:43;;;;;;;10.75;6.50;;;;;;;;;;5123457;27;20062;-55
2023/05/12 03:19:09;;;;;;;10.95;5.97;;;;;;;;;;5123570;27;20055;-50
2023/05/12 03:21:36;;;;;;;9.65;6.47;;;;;;;;;;5123469;27;20058;-54
2023/05/12 03:24:02;;;;;;;9.85;6.18;;;;;;;;;;5124971;27;20089;-52
2023/05/12 03:26:29;;;;;;;10.10;7.07;;;;;;;;;;5123855;27;20371;-50
2023/05/12 03:28:55;;;;;;;10.90;6.63;;;;;;;;;;5124533;27;20055;-51
2023/05/12 03:31:22;;;;;;;12.52;7.45;;;;;;;;;;5123791;27;20518;-52
2023/05/12 03:33:48;;;;;;;12.15;6.82;;;;;;;;;;5122086;27;20440;-55
2023/05/12 03:36:14;;;;;;;14.43;8.50;;;;;;;;;;5123769;27;20075;-55
2023/05/12 03:38:41;;;;;;;15.40;8.00;;;;;;;;;;5113640;27;20056;-54
2023/05/12 03:41:07;;;;;;;15.88;8.07;;;;;;;;;;5116998;27;20052;-55
2023/05/12 03:43:34;;;;;;;20.45;8.82;;;;;;;;;;5124260;27;20135;-55
2023/05/12 03:46:00;;;;;;;15.52;9.40;;;;;;;;;;5124265;27;20574;-54
2023/05/12 03:48:27;;;;;;;14.55;8.50;;;;;;;;;;5122962;27;20054;-54
2023/05/12 03:50:54;;;;;;;16.92;9.30;;;;;;;;;;5124356;27;20052;-53
2023/05/12 03:53:20;;;;;;;19.30;10.30;;;;;;;;;;5125926;27;20062;-54
2023/05/12 03:55:47;;;;;;;19.40;9.93;;;;;;;;;;5123735;27;20741;-56
2023/05/12 03:58:13;;;;;;;18.95;9.90;;;;;;;;;;5123832;27;20124;-50
2023/05/12 04:00:39;;;;;;;22.27;10.00;;;;;;;;;;5123413;27;20051;-51
2023/05/12 04:03:06;;;;;;;23.40;11.35;;;;;;;;;;5123787;27;20055;-54
2023/05/12 04:05:32;;;;;;;22.02;10.73;;;;;;;;;;5115536;27;20143;-51
2023/05/12 04:07:58;;;;;;;19.88;10.18;;;;;;;;;;5122048;27;20051;-52
2023/05/12 04:10:25;;;;;;;22.40;10.95;;;;;;;;;;5123446;27;20051;-53
2023/05/12 04:12:51;;;;;;;23.35;11.82;;;;;;;;;;5119631;27;20135;-53
2023/05/12 04:15:18;;;;;;;20.05;11.48;;;;;;;;;;5124090;27;20058;-53
2023/05/12 04:17:44;;;;;;;27.65;12.55;;;;;;;;;;5123409;27;20712;-51
2023/05/12 04:20:11;;;;;;;30.42;13.82;;;;;;;;;;5123688;27;20081;-51
2023/05/12 04:22:37;;;;;;;27.17;13.27;;;;;;;;;;5120827;27;20055;-52
2023/05/12 04:25:03;;;;;;;30.77;13.48;;;;;;;;;;5115186;27;20082;-54
2023/05/12 04:27:30;;;;;;;29.65;14.82;;;;;;;;;;5121562;27;20515;-55
2023/05/12 04:29:56;;;;;;;29.35;14.52;;;;;;;;;;5124020;27;20052;-54
2023/05/12 04:32:23;;;;;;;31.02;13.95;;;;;;;;;;5122971;27;20055;-50
2023/05/12 04:34:50;;;;;;;30.95;14.50;;;;;;;;;;5123267;27;20722;-51
2023/05/12 04:37:16;;;;;;;31.92;15.80;;;;;;;;;;5120614;27;20051;-50
2023/05/12 04:39:43;;;;;;;31.63;15.13;;;;;;;;;;5123216;27;20091;-51
2023/05/12 04:42:09;;;;;;;36.25;16.83;;;;;;;;;;5121642;27;20512;-51
2023/05/12 04:44:35;;;;;;;32.78;15.95;;;;;;;;;;5122218;27;20056;-51
2023/05/12 04:47:02;;;;;;;39.33;17.05;;;;;;;;;;5123008;27;20056;-53
2023/05/12 04:49:28;;;;;;;37.70;17.27;;;;;;;;;;5118310;27;20174;-54
2023/05/12 04:51:55;;;;;;;38.40;16.70;;;;;;;;;;5122874;27;20056;-51
2023/05/12 04:54:21;;;;;;;35.22;18.00;;;;;;;;;;5121987;27;20051;-54
2023/05/12 04:56:47;;;;;;;36.53;17.65;;;;;;;;;;5122783;27;20044;-55
2023/05/12 04:59:17;;;;;;;41.83;18.17;;;;;;;;;;5121237;27;20067;-51
2023/05/12 05:01:43;;;;;;;39.22;18.88;;;;;;;;;;5120853;27;20099;-55
2023/05/12 05:04:09;;;;;;;38.80;19.23;;;;;;;;;;5123129;27;20048;-50
2023/05/12 05:06:36;;;;;;;39.30;18.60;;;;;;;;;;5123411;27;20098;-50
2023/05/12 05:09:02;;;;;;;39.47;19.00;;;;;;;;;;5125373;27;20581;-51
2023/05/12 05:11:29;;;;;;;40.78;20.95;;;;;;;;;;5126061;27;20639;-50
2023/05/12 05:13:55;;;;;;;37.35;20.10;;;;;;;;;;5125278;27;20070;-52
2023/05/12 05:16:22;;;;;;;42.13;21.48;;;;;;;;;;5126114;27;20048;-52
2023/05/12 05:18:49;;;;;;;39.28;20.35;;;;;;;;;;5121633;27;20136;-50
2023/05/12 05:21:15;;;;;;;41.03;20.40;;;;;;;;;;5126327;27;20047;-53
2023/05/12 05:23:42;;;;;;;42.97;20.17;;;;;;;;;;5125992;27;20052;-53
2023/05/12 05:26:08;;;;;;;42.53;20.60;;;;;;;;;;5124859;27;20052;-52
2023/05/12 05:28:35;;;;;;;42.00;20.88;;;;;;;;;;5116686;27;20080;-52
2023/05/12 05:31:01;;;;;;;46.05;21.50;;;;;;;;;;5123328;27;21725;-52
2023/05/12 05:33:28;;;;;;;47.70;21.13;;;;;;;;;;5124651;27;20048;-53
2023/05/12 05:35:54;;;;;;;38.97;19.33;;;;;;;;;;5125371;27;20989;-54
2023/05/12 05:38:21;;;;;;;49.03;21.40;;;;;;;;;;5125134;27;20560;-53
2023/05/12 05:40:47;;;;;;;45.10;21.73;;;;;;;;;;5124232;27;20128;-52
2023/05/12 05:43:19;;;;;;;40.03;20.50;;;;;;;;;;5124177;27;20052;-56
2023/05/12 05:45:48;;;;;;;47.33;20.33;;;;;;;;;;5121215;27;20043;-50
2023/05/12 05:48:14;;;;;;;45.45;21.00;;;;;;;;;;5124602;27;20059;-53
2023/05/12 05:50:41;;;;;;;42.65;20.15;;;;;;;;;;5125868;27;20601;-53
2023/05/12 05:53:07;;;;;;;40.75;20.42;;;;;;;;;;5117217;27;20608;-54
2023/05/12 05:55:33;;;;;;;45.95;21.13;;;;;;;;;;5124209;27;20054;-56
2023/05/12 05:58:00;;;;;;;40.63;20.55;;;;;;;;;;5124264;27;20062;-54
2023/05/12 06:00:26;;;;;;;45.50;21.25;;;;;;;;;;5124214;27;20059;-53
2023/05/12 06:02:52;;;;;;;44.47;21.77;;;;;;;;;;5111800;27;20056;-54
2023/05/12 06:05:19;;;;;;;42.88;21.50;;;;;;;;;;5123909;27;20109;-53
2023/05/12 06:07:45;;;;;;;46.00;20.83;;;;;;;;;;5119675;27;20056;-54
2023/05/12 06:10:12;;;;;;;47.30;20.10;;;;;;;;;;5124887;27;20139;-52
2023/05/12 06:12:39;;;;;;;46.97;21.63;;;;;;;;;;5126200;27;20060;-54
2023/05/12 06:15:06;;;;;;;58.80;22.40;;;;;;;;;;5125765;27;20043;-55
2023/05/12 06:17:32;;;;;;;40.00;19.27;;;;;;;;;;5125167;27;20048;-50
2023/05/12 06:19:59;;;;;;;43.17;20.48;;;;;;;;;;5124377;27;20055;-56
2023/05/12 06:22:25;;;;;;;49.15;22.90;;;;;;;;;;5124639;27;20131;-52
2023/05/12 06:24:51;;;;;;;48.70;22.02;;;;;;;;;;5119545;27;20786;-55
2023/05/12 06:27:18;;;;;;;46.72;21.65;;;;;;;;;;5120866;27;20052;-54
2023/05/12 06:29:44;;;;;;;42.65;22.05;;;;;;;;;;5099833;27;20897;-52
2023/05/12 06:32:11;;;;;;;38.95;20.48;;;;;;;;;;5112480;27;20948;-50
2023/05/12 06:34:37;;;;;;;41.35;20.60;;;;;;;;;;5106227;27;20052;-53
2023/05/12 06:37:03;;;;;;;36.58;19.55;;;;;;;;;;5111979;27;20528;-54
2023/05/12 06:39:30;;;;;;;41.60;20.33;;;;;;;;;;5114364;27;20142;-54
2023/05/12 06:41:56;;;;;;;43.10;21.13;;;;;;;;;;5122449;27;20502;-50
2023/05/12 06:44:23;;;;;;;43.50;21.58;;;;;;;;;;5124141;27;20063;-52
2023/05/12 06:46:49;;;;;;;43.53;21.40;;;;;;;;;;5124993;27;20052;-53
2023/05/12 06:49:16;;;;;;;39.40;21.00;;;;;;;;;;5124301;27;20131;-49
2023/05/12 06:51:42;;;;;;;41.40;19.85;;;;;;;;;;5124550;27;20184;-51
2023/05/12 06:54:08;;;;;;;34.67;19.50;;;;;;;;;;5124186;27;20104;-52
2023/05/12 06:56:34;;;;;;;41.65;21.60;;;;;;;;;;5123892;27;20047;-54
2023/05/12 06:59:02;;;;;;;37.65;20.33;;;;;;;;;;5118806;27;20109;-50
2023/05/12 07:01:29;;;;;;;46.42;21.55;;;;;;;;;;5113592;27;20055;-52
2023/05/12 07:03:55;;;;;;;37.72;20.17;;;;;;;;;;5116277;27;20114;-52
2023/05/12 07:06:22;;;;;;;37.97;20.65;;;;;;;;;;5138567;27;20075;-51
2023/05/12 07:08:48;;;;;;;39.40;21.02;;;;;;;;;;5122051;27;20055;-52
2023/05/12 07:11:18;;;;;;;36.00;20.25;;;;;;;;;;5129018;27;20545;-54
2023/05/12 07:13:48;;;;;;;40.78;21.55;;;;;;;;;;5121687;27;20559;-55
2023/05/12 07:16:15;;;;;;;38.30;20.13;;;;;;;;;;5118119;27;20139;-55
2023/05/12 07:18:42;;;;;;;38.50;20.92;;;;;;;;;;5157950;27;20047;-52
2023/05/12 07:21:09;;;;;;;36.33;20.25;;;;;;;;;;5123569;27;20048;-50
2023/05/12 07:23:35;;;;;;;37.13;20.40;;;;;;;;;;5121798;27;20133;-54
2023/05/12 07:26:03;;;;;;;34.92;18.90;;;;;;;;;;5123454;27;20056;-54
2023/05/12 07:28:36;;;;;;;32.35;18.80;;;;;;;;;;5120302;27;20047;-54
2023/05/12 07:31:03;;;;;;;41.35;20.77;;;;;;;;;;5124003;27;20059;-53
2023/05/12 07:33:30;;;;;;;35.78;20.05;;;;;;;;;;5123774;27;20102;-50
2023/05/12 07:35:56;;;;;;;37.03;19.80;;;;;;;;;;5124099;27;20054;-56
2023/05/12 07:38:23;;;;;;;34.13;19.50;;;;;;;;;;5124674;27;20061;-52
2023/05/12 07:40:50;;;;;;;32.47;19.38;;;;;;;;;;5122696;27;20142;-53
2023/05/12 07:43:16;;;;;;;36.08;18.92;;;;;;;;;;5121984;27;21053;-50
2023/05/12 07:45:43;;;;;;;34.20;19.17;;;;;;;;;;5123168;27;20085;-53
2023/05/12 07:48:10;;;;;;;32.40;18.52;;;;;;;;;;5121748;27;20043;-54
2023/05/12 07:50:36;;;;;;;33.40;19.23;;;;;;;;;;5123466;27;20054;-53
2023/05/12 07:53:03;;;;;;;32.63;18.65;;;;;;;;;;5119933;27;20335;-52
2023/05/12 07:55:29;;;;;;;33.25;18.98;;;;;;;;;;5123034;27;20579;-53
2023/05/12 07:57:55;;;;;;;34.38;19.70;;;;;;;;;;5122962;27;20056;-51
2023/05/12 08:00:22;;;;;;;32.75;18.67;;;;;;;;;;5124453;27;20060;-50
2023/05/12 08:02:48;;;;;;;27.90;18.27;;;;;;;;;;5123100;27;20086;-56
2023/05/12 08:05:15;;;;;;;29.85;19.00;;;;;;;;;;5129300;27;20054;-54
2023/05/12 08:07:42;;;;;;;24.60;16.20;;;;;;;;;;5122082;27;20052;-51
2023/05/12 08:10:10;;;;;;;25.17;16.38;;;;;;;;;;5124342;27;20109;-55
2023/05/12 08:12:36;;;;;;;23.90;17.45;;;;;;;;;;5122979;27;20067;-53
2023/05/12 08:15:03;;;;;;;25.23;16.98;;;;;;;;;;5121941;27;20055;-52
2023/05/12 08:17:29;;;;;;;20.58;15.55;;;;;;;;;;5121740;27;20146;-55
2023/05/12 08:19:55;;;;;;;24.52;16.13;;;;;;;;;;5123464;27;20064;-50
2023/05/12 08:22:22;;;;;;;24.50;15.48;;;;;;;;;;5120194;27;20804;-51
2023/05/12 08:24:48;;;;;;;20.27;15.73;;;;;;;;;;5121627;27;20051;-53
2023/05/12 08:27:14;;;;;;;21.23;13.98;;;;;;;;;;5123342;27;20100;-54
2023/05/12 08:29:40;;;;;;;21.55;15.10;;;;;;;;;;5136283;27;20051;-52
2023/05/12 08:32:07;;;;;;;24.27;14.77;;;;;;;;;;5121356;27;20047;-53
2023/05/12 08:34:33;;;;;;;22.38;14.38;;;;;;;;;;5122149;27;20602;-53
2023/05/12 08:37:00;;;;;;;17.08;13.35;;;;;;;;;;5118557;27;20945;-51
2023/05/12 08:39:29;;;;;;;20.90;13.77;;;;;;;;;;5112807;27;20651;-51
2023/05/12 08:42:12;;;;;;;18.52;13.63;;;;;;;;;;5121316;27;21741;-36
2023/05/12 08:44:39;;;;;;;19.55;13.88;;;;;;;;;;5123171;27;20153;-50
2023/05/12 08:47:05;;;;;;;20.52;14.38;;;;;;;;;;5120539;27;20513;-51
2023/05/12 08:49:33;;;;;;;18.88;13.63;;;;;;;;;;5121248;27;20520;-51
2023/05/12 08:52:00;;;;;;;18.17;13.35;;;;;;;;;;5121932;27;20052;-53
2023/05/12 08:54:27;;;;;;;18.08;13.88;;;;;;;;;;5123697;27;20059;-51
2023/05/12 08:56:54;;;;;;;16.60;11.68;;;;;;;;;;5134758;27;20051;-52
2023/05/12 08:59:23;;;;;;;17.05;11.90;;;;;;;;;;5144421;27;20055;-54
2023/05/12 09:01:49;;;;;;;15.63;11.00;;;;;;;;;;5123620;27;20052;-54
2023/05/12 09:04:16;;;;;;;15.82;11.75;;;;;;;;;;5117038;27;20540;-51
2023/05/12 09:06:44;;;;;;;13.70;9.15;;;;;;;;;;5121474;27;20598;-51
2023/05/12 09:09:12;;;;;;;14.65;10.90;;;;;;;;;;5122916;27;20051;-53
2023/05/12 09:11:40;;;;;;;12.82;9.63;;;;;;;;;;5122409;27;20515;-54
2023/05/12 09:14:07;;;;;;;11.02;9.38;;;;;;;;;;5123364;27;20062;-50
2023/05/12 09:16:42;;;;;;;11.15;8.80;;;;;;;;;;5120688;27;20063;-53
2023/05/12 09:19:08;;;;;;;11.47;9.03;;;;;;;;;;5123249;27;20517;-52
2023/05/12 09:21:37;;;;;;;12.23;9.45;;;;;;;;;;5123286;27;20254;-52
2023/05/12 09:24:07;;;;;;;10.85;8.50;;;;;;;;;;5122542;27;20056;-54
2023/05/12 09:26:43;;;;;;;11.90;8.63;;;;;;;;;;5122812;27;20755;-52
2023/05/12 09:29:10;;;;;;;9.50;8.20;;;;;;;;;;5122011;27;20052;-54
2023/05/12 09:31:52;;;;;;;11.25;7.68;;;;;;;;;;5139669;27;20589;-52
2023/05/12 09:34:25;;;;;;;9.55;8.48;;;;;;;;;;5121300;27;20148;-54
2023/05/12 09:36:59;;;;;;;8.95;7.13;;;;;;;;;;5122018;27;20052;-53
2023/05/12 09:39:27;;;;;;;8.90;7.28;;;;;;;;;;5116391;27;20430;-53
2023/05/12 09:41:54;;;;;;;13.27;7.60;;;;;;;;;;5122486;27;20854;-52
2023/05/12 09:44:20;;;;;;;10.65;7.20;;;;;;;;;;5120261;27;20052;-55
2023/05/12 09:46:47;;;;;;;8.32;7.15;;;;;;;;;;5123284;27;20618;-51
2023/05/12 09:49:20;;;;;;;7.40;6.57;;;;;;;;;;5122032;27;20039;-51
2023/05/12 09:51:57;;;;;;;8.70;6.57;;;;;;;;;;5122344;27;20763;-54
2023/05/12 09:54:27;;;;;;;5.70;5.10;;;;;;;;;;5122123;27;20078;-56
2023/05/12 09:56:56;;;;;;;7.05;5.47;;;;;;;;;;5159454;27;20052;-56
2023/05/12 09:59:25;;;;;;;6.20;5.20;;;;;;;;;;5122363;27;20052;-55
2023/05/12 10:01:52;;;;;;;5.70;4.85;;;;;;;;;;5122343;27;20101;-53
2023/05/12 10:04:19;;;;;;;6.90;5.95;;;;;;;;;;5123604;27;20128;-51
2023/05/12 10:06:46;;;;;;;7.03;6.32;;;;;;;;;;5124869;27;20571;-52
2023/05/12 10:09:20;;;;;;;7.90;5.85;;;;;;;;;;5126072;27;20051;-53
2023/05/12 10:11:46;;;;;;;9.80;5.90;;;;;;;;;;5125628;27;20619;-54
2023/05/12 10:14:12;;;;;;;6.22;5.45;;;;;;;;;;5121890;27;20058;-54
2023/05/12 10:16:39;;;;;;;5.97;5.38;;;;;;;;;;5117030;27;20143;-57
2023/05/12 10:19:07;;;;;;;5.63;5.07;;;;;;;;;;5125803;27;20510;-55
2023/05/12 10:21:35;;;;;;;5.53;4.93;;;;;;;;;;5125584;27;20501;-56
2023/05/12 10:24:02;;;;;;;6.20;5.03;;;;;;;;;;5125071;27;20056;-57
2023/05/12 10:26:30;;;;;;;6.40;5.80;;;;;;;;;;5125655;27;20051;-55
2023/05/12 10:28:57;;;;;;;6.78;5.47;;;;;;;;;;5126204;27;20531;-53
2023/05/12 10:31:24;;;;;;;5.10;4.57;;;;;;;;;;5125000;27;20467;-54
2023/05/12 10:33:57;;;;;;;6.25;4.50;;;;;;;;;;5125923;27;20059;-53
2023/05/12 10:36:24;;;;;;;5.65;4.78;;;;;;;;;;5126015;27;20147;-55
2023/05/12 10:38:50;;;;;;;6.03;4.13;;;;;;;;;;5125649;27;20493;-51
2023/05/12 10:41:28;;;;;;;5.82;4.05;;;;;;;;;;5125324;27;20070;-55
2023/05/12 10:43:54;;;;;;;4.22;3.80;;;;;;;;;;5125690;27;20060;-55
2023/05/12 10:46:21;;;;;;;4.75;3.92;;;;;;;;;;5123271;27;20062;-52
2023/05/12 10:48:50;;;;;;;4.88;4.07;;;;;;;;;;5124581;27;20464;-54
2023/05/12 10:51:25;;;;;;;7.20;3.85;;;;;;;;;;5123987;27;20491;-54
2023/05/12 10:53:59;;;;;;;5.60;4.18;;;;;;;;;;5123465;27;20051;-56
2023/05/12 10:56:27;;;;;;;4.38;3.38;;;;;;;;;;5130016;27;20047;-57
2023/05/12 10:59:08;;;;;;;4.35;3.55;;;;;;;;;;5125742;27;20052;-57
2023/05/12 11:01:35;;;;;;;4.05;3.40;;;;;;;;;;5118992;27;20051;-53
2023/05/12 11:04:12;;;;;;;6.28;3.50;;;;;;;;;;5117062;27;20054;-58
2023/05/12 11:06:40;;;;;;;5.07;4.03;;;;;;;;;;5117509;27;20051;-56
2023/05/12 11:09:07;;;;;;;4.78;3.75;;;;;;;;;;5124443;27;20473;-57
2023/05/12 11:11:34;;;;;;;6.35;3.28;;;;;;;;;;5125456;27;20059;-57
2023/05/12 11:14:01;;;;;;;3.42;3.13;;;;;;;;;;5125051;27;20114;-55
2023/05/12 11:16:28;;;;;;;4.20;3.28;;;;;;;;;;5120721;27;20047;-55
2023/05/12 11:19:02;;;;;;;4.00;3.30;;;;;;;;;;5125036;27;20066;-52
2023/05/12 11:21:30;;;;;;;3.63;3.33;;;;;;;;;;5121897;27;20134;-55
2023/05/12 11:23:58;;;;;;;3.53;3.17;;;;;;;;;;5123690;27;20059;-55
2023/05/12 11:26:24;;;;;;;6.25;3.20;;;;;;;;;;5125657;27;20059;-57
2023/05/12 11:28:51;;;;;;;3.13;2.80;;;;;;;;;;5124440;27;20511;-55
2023/05/12 11:31:19;;;;;;;3.30;3.00;;;;;;;;;;5123572;27;20055;-56
2023/05/12 11:33:45;;;;;;;3.47;3.17;;;;;;;;;;5116021;27;20528;-57
2023/05/12 11:36:12;;;;;;;6.07;3.00;;;;;;;;;;5122631;27;20048;-57
2023/05/12 11:38:39;;;;;;;3.35;3.00;;;;;;;;;;5124588;27;20051;-57
2023/05/12 11:41:06;;;;;;;3.67;3.03;;;;;;;;;;5118420;27;20047;-57
2023/05/12 11:43:32;;;;;;;7.03;3.60;;;;;;;;;;5121233;27;20087;-58
2023/05/12 11:45:58;;;;;;;3.45;3.00;;;;;;;;;;5113759;27;20183;-56
2023/05/12 11:48:34;;;;;;;3.40;2.92;;;;;;;;;;5118963;27;20191;-57
2023/05/12 11:51:00;;;;;;;;;;;;;;;;;;5122826;27;20058;-58
2023/05/12 11:53:26;;;;;;;3.22;2.92;;;;;;;;;;5122880;27;46918;-57
2023/05/12 11:55:54;;;;;;;3.83;3.20;;;;;;;;;;5124129;27;20669;-55
2023/05/12 11:58:23;;;;;;;3.88;3.58;;;;;;;;;;5123640;27;20056;-53
2023/05/12 12:00:49;;;;;;;5.10;3.22;;;;;;;;;;5123516;27;20068;-56
2023/05/12 12:03:16;;;;;;;3.25;3.05;;;;;;;;;;5128940;27;20062;-55
2023/05/12 12:05:44;;;;;;;5.53;3.28;;;;;;;;;;5134867;27;20059;-58
2023/05/12 12:08:14;;;;;;;4.15;2.55;;;;;;;;;;5116043;27;20150;-57
2023/05/12 12:10:43;;;;;;;3.72;2.80;;;;;;;;;;5102874;27;20072;-56
2023/05/12 12:13:10;;;;;;;4.28;3.10;;;;;;;;;;5117136;27;20532;-55
2023/05/12 12:15:36;;;;;;;3.47;3.17;;;;;;;;;;5121810;27;20051;-58
2023/05/12 12:18:03;;;;;;;3.67;3.10;;;;;;;;;;5122322;27;20059;-56
2023/05/12 12:20:29;;;;;;;3.90;3.00;;;;;;;;;;5124425;27;20052;-57
2023/05/12 12:22:55;;;;;;;5.18;3.00;;;;;;;;;;5121329;27;20075;-56
2023/05/12 12:25:22;;;;;;;3.20;2.90;;;;;;;;;;5123081;27;20180;-56
2023/05/12 12:27:48;;;;;;;3.67;3.03;;;;;;;;;;5122636;27;20054;-56
2023/05/12 12:30:15;;;;;;;4.72;3.45;;;;;;;;;;5123066;27;20805;-57
2023/05/12 12:32:42;;;;;;;5.13;2.97;;;;;;;;;;5121590;27;20051;-56
2023/05/12 12:35:10;;;;;;;5.05;2.80;;;;;;;;;;5120847;27;20078;-58
2023/05/12 12:37:36;;;;;;;3.22;2.92;;;;;;;;;;5124135;27;20058;-57
2023/05/12 12:40:07;;;;;;;5.07;3.05;;;;;;;;;;5122053;27;20052;-54
2023/05/12 12:42:34;;;;;;;3.10;2.85;;;;;;;;;;5120347;27;20139;-56
2023/05/12 12:45:04;;;;;;;3.53;3.20;;;;;;;;;;5122484;27;20063;-56
2023/05/12 12:47:30;;;;;;;6.20;3.75;;;;;;;;;;5122786;27;20048;-53
2023/05/12 12:49:57;;;;;;;5.05;3.22;;;;;;;;;;5112587;27;20056;-57
2023/05/12 12:52:24;;;;;;;4.40;3.80;;;;;;;;;;5123403;27;20577;-58
2023/05/12 12:54:50;;;;;;;3.97;3.58;;;;;;;;;;5122546;27;20047;-56
2023/05/12 12:57:18;;;;;;;5.97;3.97;;;;;;;;;;5114505;27;20052;-58
2023/05/12 12:59:44;;;;;;;4.00;3.60;;;;;;;;;;5121460;27;20179;-56
2023/05/12 13:02:11;;;;;;;5.30;3.90;;;;;;;;;;5121148;27;20048;-57
2023/05/12 13:04:37;;;;;;;5.30;4.78;;;;;;;;;;5121789;27;20051;-57
2023/05/12 13:07:04;;;;;;;6.50;5.90;;;;;;;;;;5122308;27;20497;-56
2023/05/12 13:09:31;;;;;;;7.30;5.40;;;;;;;;;;5120496;27;20051;-55
2023/05/12 13:11:58;;;;;;;5.80;4.47;;;;;;;;;;5122603;27;20051;-56
2023/05/12 13:14:25;;;;;;;4.85;3.58;;;;;;;;;;5121465;27;20075;-55
2023/05/12 13:16:51;;;;;;;4.78;4.13;;;;;;;;;;5122502;27;20058;-54
2023/05/12 13:19:18;;;;;;;5.78;3.35;;;;;;;;;;5122632;27;20047;-56
2023/05/12 13:21:44;;;;;;;5.97;3.60;;;;;;;;;;5122518;27;20530;-56
2023/05/12 13:24:10;;;;;;;3.88;3.35;;;;;;;;;;5121279;27;20057;-56
2023/05/12 13:26:37;;;;;;;4.28;3.78;;;;;;;;;;5121622;27;20063;-58
2023/05/12 13:29:03;;;;;;;5.35;3.85;;;;;;;;;;5124408;27;20050;-56
2023/05/12 13:31:29;;;;;;;4.38;3.75;;;;;;;;;;5120942;27;20047;-55
2023/05/12 13:33:56;;;;;;;6.97;4.90;;;;;;;;;;5124576;27;20055;-57
2023/05/12 13:36:22;;;;;;;7.93;5.10;;;;;;;;;;5124086;27;20178;-57
2023/05/12 13:38:48;;;;;;;5.38;4.68;;;;;;;;;;5126025;27;20048;-58
2023/05/12 13:41:15;;;;;;;5.63;5.07;;;;;;;;;;5121064;27;20143;-58
2023/05/12 13:43:42;;;;;;;7.13;4.90;;;;;;;;;;5124731;27;20095;-57
2023/05/12 13:46:08;;;;;;;7.70;4.90;;;;;;;;;;5125390;27;20156;-58
2023/05/12 13:48:35;;;;;;;7.07;5.20;;;;;;;;;;5123034;27;20543;-57
2023/05/12 13:51:01;;;;;;;6.90;5.18;;;;;;;;;;5125973;27;20055;-58
2023/05/12 13:53:27;;;;;;;6.07;5.07;;;;;;;;;;5121717;27;20158;-59
2023/05/12 13:55:54;;;;;;;7.93;5.38;;;;;;;;;;5125573;27;20069;-56
2023/05/12 13:58:20;;;;;;;6.18;4.95;;;;;;;;;;5124497;27;20491;-57
2023/05/12 14:00:47;;;;;;;7.50;4.32;;;;;;;;;;5123468;27;20043;-57
2023/05/12 14:03:13;;;;;;;5.72;4.82;;;;;;;;;;5123052;27;20457;-59
2023/05/12 14:05:40;;;;;;;5.35;4.60;;;;;;;;;;5124201;27;20729;-58
2023/05/12 14:08:06;;;;;;;4.78;4.38;;;;;;;;;;5125626;27;20515;-57
2023/05/12 14:10:34;;;;;;;5.72;4.43;;;;;;;;;;5124330;27;20059;-57
2023/05/12 14:13:00;;;;;;;5.03;4.53;;;;;;;;;;5124012;27;20055;-57
2023/05/12 14:15:27;;;;;;;5.97;4.68;;;;;;;;;;5124800;27;20593;-56
2023/05/12 14:18:13;;;;;;;6.35;3.97;;;;;;;;;;5104271;27;20060;-57
2023/05/12 14:20:40;;;;;;;5.45;4.95;;;;;;;;;;5127946;27;20057;-56
2023/05/12 14:23:06;;;;;;;5.30;4.70;;;;;;;;;;5133140;27;20055;-55
2023/05/12 14:25:33;;;;;;;5.68;4.72;;;;;;;;;;5123947;27;20058;-58
2023/05/12 14:27:59;;;;;;;4.63;4.20;;;;;;;;;;5145990;27;20089;-56
2023/05/12 14:30:25;;;;;;;5.10;4.60;;;;;;;;;;5124996;27;20056;-58
2023/05/12 14:32:52;;;;;;;6.13;4.68;;;;;;;;;;5124232;27;20059;-58